Cielo Di Seto — H3DM — position and weather

sailwx.info

Track history (hours):
 
Tides and Currents Weather Stations Pressure Air Temp Water Temp Dewpoint Dewpoint Depression Visibility Wind Speed Wind Dir Waves Ship Positions

Cielo Di Seto

Last reported at 2018-Feb-16 12:54 UTC. Time now 2018-Feb-21 19:38 UTC.
Position N 01°15' E 104°01'.

Length 183 m; draft 8.6 m.

Type: Cargo ship. MMSI: 372533000.

Date/timePositionNaut miles runAvg speedWind from/ knotsBaromVisibWave heightAir tempDewpointWater temp
2018-Feb-16 12:54N 01°15' E 104°01'2 5.1
2018-Feb-16 12:27N 01°15' E 103°59'2 0.8
2018-Feb-16 10:03N 01°17' E 103°58'0 0.6
2018-Feb-16 09:57N 01°17' E 103°58'0 0.1
2018-Feb-16 09:30N 01°17' E 103°58'0 0.0
2018-Feb-16 08:54N 01°17' E 103°58'0 0.0
2018-Feb-16 08:27N 01°17' E 103°58'2 0.3
2018-Feb-15 23:45N 01°15' E 103°56'1 1.9
2018-Feb-15 23:05N 01°14' E 103°57'1 3.4
2018-Feb-15 22:53N 01°14' E 103°56'2 5.2
2018-Feb-15 22:30N 01°13' E 103°54'3 5.1
2018-Feb-15 21:58N 01°11' E 103°52'3 5.9
2018-Feb-15 21:29N 01°10' E 103°49'2 4.6
2018-Feb-15 21:00N 01°09' E 103°47'4 6.5
2018-Feb-15 20:27N 01°07' E 103°45'3 6.8
2018-Feb-15 19:56N 01°04' E 103°42'3 6.8
2018-Feb-15 19:29N 01°02' E 103°40'3 5.3
2018-Feb-15 18:58N 01°03' E 103°37'4 6.3
2018-Feb-15 18:20N 01°05' E 103°34'3 7.0
2018-Feb-15 17:54N 01°07' E 103°31'  
Track history (hours):
 
Tides and Currents Weather Stations Pressure Air Temp Water Temp Dewpoint Dewpoint Depression Visibility Wind Speed Wind Dir Waves Ship Positions

Cielo Di Seto

Last reported at 2018-Feb-16 12:54 UTC. Time now 2018-Feb-21 19:38 UTC.
Position N 01°15' E 104°01'.

Length 183 m; draft 8.6 m.

Type: Cargo ship. MMSI: 372533000.

Date/timePositionNaut miles runAvg speedWind from/ knotsBaromVisibWave heightAir tempDewpointWater temp
2018-Feb-16 12:54N 01°15' E 104°01'2 5.1
2018-Feb-16 12:27N 01°15' E 103°59'2 0.8
2018-Feb-16 10:03N 01°17' E 103°58'0 0.6
2018-Feb-16 09:57N 01°17' E 103°58'0 0.1
2018-Feb-16 09:30N 01°17' E 103°58'0 0.0
2018-Feb-16 08:54N 01°17' E 103°58'0 0.0
2018-Feb-16 08:27N 01°17' E 103°58'2 0.3
2018-Feb-15 23:45N 01°15' E 103°56'1 1.9
2018-Feb-15 23:05N 01°14' E 103°57'1 3.4
2018-Feb-15 22:53N 01°14' E 103°56'2 5.2
2018-Feb-15 22:30N 01°13' E 103°54'3 5.1
2018-Feb-15 21:58N 01°11' E 103°52'3 5.9
2018-Feb-15 21:29N 01°10' E 103°49'2 4.6
2018-Feb-15 21:00N 01°09' E 103°47'4 6.5
2018-Feb-15 20:27N 01°07' E 103°45'3 6.8
2018-Feb-15 19:56N 01°04' E 103°42'3 6.8
2018-Feb-15 19:29N 01°02' E 103°40'3 5.3
2018-Feb-15 18:58N 01°03' E 103°37'4 6.3
2018-Feb-15 18:20N 01°05' E 103°34'3 7.0
2018-Feb-15 17:54N 01°07' E 103°31'  

Dump ship's entire track history